createdAt,value
2022-08-27T00:02:04.336Z,34.95
2022-08-27T00:04:39.478Z,34.83
2022-08-27T00:07:13.731Z,35.01
2022-08-27T00:09:47.766Z,34.67
2022-08-27T00:12:22.566Z,34.64
2022-08-27T00:14:56.111Z,34.63
2022-08-27T00:17:29.677Z,34.73
2022-08-27T00:20:03.118Z,34.42
2022-08-27T00:22:36.449Z,34.62
2022-08-27T00:25:11.548Z,34.79
2022-08-27T00:27:45.227Z,35.17
2022-08-27T00:30:21.706Z,35.20
2022-08-27T00:32:57.207Z,35.58
2022-08-27T00:35:30.615Z,35.75
2022-08-27T00:38:05.509Z,35.74
2022-08-27T00:40:39.604Z,35.25
2022-08-27T00:43:13.074Z,35.92
2022-08-27T00:45:48.324Z,36.32
2022-08-27T00:48:24.661Z,35.84
2022-08-27T00:50:59.108Z,35.93
2022-08-27T00:53:37.529Z,36.39
2022-08-27T00:56:15.716Z,35.75
2022-08-27T00:58:51.884Z,35.92
2022-08-27T01:01:28.355Z,35.42
2022-08-27T01:04:05.961Z,35.78
2022-08-27T01:06:38.912Z,35.56
2022-08-27T01:09:15.104Z,32.13
2022-08-27T01:11:50.298Z,35.18
2022-08-27T01:14:24.177Z,35.94
2022-08-27T01:16:59.158Z,35.76
2022-08-27T01:19:35.455Z,35.72
2022-08-27T01:22:21.911Z,35.81
2022-08-27T01:24:50.779Z,36.02
2022-08-27T01:27:27.326Z,36.33
2022-08-27T01:30:01.030Z,36.56
2022-08-27T01:32:37.137Z,36.77
2022-08-27T01:35:13.995Z,37.08
2022-08-27T01:37:52.274Z,37.48
2022-08-27T01:40:25.752Z,37.72
2022-08-27T01:43:00.635Z,38.54
2022-08-27T01:45:35.905Z,38.43
2022-08-27T01:48:10.174Z,38.55
2022-08-27T01:50:44.973Z,39.00
2022-08-27T01:53:20.786Z,39.48
2022-08-27T01:55:55.502Z,39.46
2022-08-27T01:58:31.019Z,39.28
2022-08-27T02:01:08.221Z,40.05
2022-08-27T02:03:43.283Z,39.70
2022-08-27T02:06:17.177Z,39.27
2022-08-27T02:08:50.826Z,39.17
2022-08-27T02:11:24.719Z,38.98
2022-08-27T02:13:58.115Z,38.61
2022-08-27T02:16:32.583Z,38.50
2022-08-27T02:19:07.241Z,38.56
2022-08-27T02:21:42.640Z,38.10
2022-08-27T02:24:16.127Z,38.37
2022-08-27T02:26:49.617Z,39.05
2022-08-27T02:29:23.285Z,39.07
2022-08-27T02:31:57.109Z,39.45
2022-08-27T02:34:30.934Z,39.45
2022-08-27T02:37:04.869Z,39.96
2022-08-27T02:39:41.256Z,39.58
2022-08-27T02:42:14.359Z,39.67
2022-08-27T02:44:48.521Z,40.00
2022-08-27T02:47:22.422Z,40.23
2022-08-27T02:49:56.531Z,40.63
2022-08-27T02:52:31.650Z,41.19
2022-08-27T02:55:06.447Z,40.93
2022-08-27T02:57:42.414Z,41.03
2022-08-27T03:00:19.717Z,40.74
2022-08-27T03:02:53.898Z,40.09
2022-08-27T03:05:28.713Z,39.93
2022-08-27T03:08:03.729Z,40.24
2022-08-27T03:10:37.518Z,39.79
2022-08-27T03:13:11.105Z,40.28
2022-08-27T03:15:44.803Z,40.18
2022-08-27T03:18:22.030Z,40.18
2022-08-27T03:20:57.683Z,40.27
2022-08-27T03:23:34.233Z,40.48
2022-08-27T03:26:10.765Z,40.15
2022-08-27T03:28:44.443Z,39.89
2022-08-27T03:31:21.779Z,39.63
2022-08-27T03:33:56.541Z,39.80
2022-08-27T03:36:31.279Z,39.71
2022-08-27T03:39:05.254Z,40.10
2022-08-27T03:41:45.462Z,39.54
2022-08-27T03:44:21.343Z,39.92
2022-08-27T03:46:51.767Z,39.59
2022-08-27T03:49:25.618Z,39.88
2022-08-27T03:51:59.697Z,40.01
2022-08-27T03:54:49.331Z,39.65
2022-08-27T03:57:25.808Z,39.60
2022-08-27T03:59:59.882Z,39.83
2022-08-27T04:02:34.837Z,39.89
2022-08-27T04:05:10.781Z,39.65
2022-08-27T04:07:47.175Z,39.88
2022-08-27T04:10:21.909Z,39.67
2022-08-27T04:12:55.385Z,39.36
2022-08-27T04:15:30.149Z,39.38
2022-08-27T04:18:03.812Z,39.71
2022-08-27T04:20:37.937Z,39.39
2022-08-27T04:23:11.623Z,39.63
2022-08-27T04:25:46.461Z,39.77
2022-08-27T04:28:20.229Z,40.74
2022-08-27T04:30:54.014Z,41.29
2022-08-27T04:33:27.796Z,40.93
2022-08-27T04:36:02.646Z,40.49
2022-08-27T04:38:37.224Z,40.51
2022-08-27T04:41:24.793Z,40.81
2022-08-27T04:43:57.793Z,40.84
2022-08-27T04:46:33.478Z,38.33
2022-08-27T04:49:10.735Z,40.55
2022-08-27T04:51:44.772Z,40.94
2022-08-27T04:54:19.367Z,40.37
2022-08-27T04:56:54.877Z,40.01
2022-08-27T04:59:28.608Z,40.16
2022-08-27T05:02:04.575Z,40.66
2022-08-27T05:04:40.552Z,40.13
2022-08-27T05:07:13.927Z,40.17
2022-08-27T05:09:47.450Z,40.27
2022-08-27T05:12:21.002Z,40.14
2022-08-27T05:14:55.653Z,39.88
2022-08-27T05:17:30.981Z,39.59
2022-08-27T05:20:05.666Z,39.67
2022-08-27T05:22:39.859Z,39.40
2022-08-27T05:25:13.933Z,39.11
2022-08-27T05:27:47.232Z,39.23
2022-08-27T05:30:21.730Z,38.77
2022-08-27T05:32:57.541Z,38.45
2022-08-27T05:35:32.926Z,38.47
2022-08-27T05:38:06.718Z,38.29
2022-08-27T05:40:42.056Z,38.15
2022-08-27T05:43:16.456Z,38.16
2022-08-27T05:45:52.870Z,38.19
2022-08-27T05:48:26.816Z,37.96
2022-08-27T05:51:02.440Z,37.47
2022-08-27T05:53:36.307Z,37.34
2022-08-27T05:56:14.580Z,37.14
2022-08-27T05:59:05.808Z,37.17
2022-08-27T06:01:43.626Z,37.00
2022-08-27T06:04:18.962Z,37.10
2022-08-27T06:06:53.452Z,37.02
2022-08-27T06:09:29.042Z,36.78
2022-08-27T06:12:04.323Z,36.53
2022-08-27T06:14:38.956Z,36.57
2022-08-27T06:17:12.464Z,36.34
2022-08-27T06:19:45.879Z,36.03
2022-08-27T06:22:19.802Z,35.81
2022-08-27T06:24:53.923Z,35.61
2022-08-27T06:27:27.509Z,35.46
2022-08-27T06:30:01.273Z,35.42
2022-08-27T06:32:34.816Z,35.25
2022-08-27T06:35:09.955Z,35.02
2022-08-27T06:37:43.176Z,34.42
2022-08-27T06:40:16.588Z,33.22
2022-08-27T06:42:49.876Z,31.71
2022-08-27T06:45:23.366Z,30.80
2022-08-27T06:47:57.699Z,29.70
2022-08-27T06:50:31.367Z,28.40
2022-08-27T06:53:04.953Z,26.99
2022-08-27T06:55:45.473Z,26.32
2022-08-27T06:58:20.667Z,25.54
2022-08-27T07:00:54.247Z,24.62
2022-08-27T07:03:27.999Z,23.99
2022-08-27T07:06:08.049Z,23.38
2022-08-27T07:08:42.255Z,22.91
2022-08-27T07:11:17.649Z,22.35
2022-08-27T07:13:52.107Z,21.94
2022-08-27T07:16:27.886Z,21.40
2022-08-27T07:19:04.280Z,20.64
2022-08-27T07:21:37.183Z,20.08
2022-08-27T07:24:12.544Z,21.94
2022-08-27T07:26:47.117Z,18.95
2022-08-27T07:29:20.766Z,18.47
2022-08-27T07:31:54.354Z,18.10
2022-08-27T07:34:28.206Z,18.18
2022-08-27T07:37:01.714Z,18.02
2022-08-27T07:39:35.243Z,17.96
2022-08-27T07:42:27.000Z,17.95
2022-08-27T07:45:00.380Z,18.01
2022-08-27T07:47:35.934Z,17.95
2022-08-27T07:50:11.491Z,17.51
2022-08-27T07:52:44.989Z,17.30
2022-08-27T07:55:19.196Z,17.51
2022-08-27T07:57:52.987Z,17.23
2022-08-27T08:00:28.365Z,17.14
2022-08-27T08:03:02.538Z,17.04
2022-08-27T08:05:36.179Z,17.12
2022-08-27T08:08:09.566Z,16.81
2022-08-27T08:10:43.752Z,16.49
2022-08-27T08:13:18.075Z,16.62
2022-08-27T08:15:51.774Z,16.79
2022-08-27T08:18:27.242Z,17.17
2022-08-27T08:21:04.141Z,17.90
2022-08-27T08:23:38.671Z,17.47
2022-08-27T08:26:13.611Z,18.01
2022-08-27T08:28:47.865Z,17.27
2022-08-27T08:31:21.799Z,16.70
2022-08-27T08:33:55.582Z,15.50
2022-08-27T08:36:29.183Z,14.45
2022-08-27T08:39:03.499Z,13.91
2022-08-27T08:41:43.053Z,12.69
2022-08-27T08:44:20.500Z,12.68
2022-08-27T08:46:56.777Z,13.26
2022-08-27T08:49:33.237Z,13.61
2022-08-27T08:52:12.520Z,16.69
2022-08-27T08:54:48.138Z,14.77
2022-08-27T08:57:26.823Z,14.04
2022-08-27T09:00:03.805Z,14.02
2022-08-27T09:02:37.316Z,14.47
2022-08-27T09:05:12.021Z,14.55
2022-08-27T09:07:49.042Z,14.19
2022-08-27T09:10:25.815Z,14.30
2022-08-27T09:13:02.512Z,13.91
2022-08-27T09:15:38.319Z,13.81
2022-08-27T09:18:14.320Z,13.04
2022-08-27T09:20:48.334Z,12.50
2022-08-27T09:23:25.571Z,14.13
2022-08-27T09:25:59.129Z,10.87
2022-08-27T09:28:50.229Z,10.19
2022-08-27T09:31:24.303Z,9.98
2022-08-27T09:33:58.259Z,9.93
2022-08-27T09:36:31.870Z,9.67
2022-08-27T09:39:07.504Z,9.63
2022-08-27T09:41:45.405Z,9.81
2022-08-27T09:44:23.175Z,10.01
2022-08-27T09:46:59.862Z,9.41
2022-08-27T09:49:37.052Z,9.49
2022-08-27T09:52:11.982Z,9.43
2022-08-27T09:54:48.324Z,9.80
2022-08-27T09:57:28.747Z,11.01
2022-08-27T10:00:06.029Z,10.99
2022-08-27T10:02:50.911Z,10.65
2022-08-27T10:05:30.508Z,10.86
2022-08-27T10:08:07.871Z,11.26
2022-08-27T10:10:46.964Z,11.25
2022-08-27T10:13:23.674Z,11.06
2022-08-27T10:16:06.524Z,10.82
2022-08-27T10:18:45.060Z,10.58
2022-08-27T10:21:23.277Z,9.79
2022-08-27T10:24:03.956Z,9.12
2022-08-27T10:26:40.514Z,9.21
2022-08-27T10:29:16.708Z,9.62
2022-08-27T10:31:50.478Z,10.43
2022-08-27T10:34:29.220Z,12.43
2022-08-27T10:37:09.457Z,10.58
2022-08-27T10:39:56.635Z,10.36
2022-08-27T10:42:32.882Z,9.82
2022-08-27T10:45:26.661Z,9.17
2022-08-27T10:47:59.966Z,9.66
2022-08-27T10:50:37.684Z,10.26
2022-08-27T10:53:14.738Z,10.74
2022-08-27T10:55:52.521Z,11.14
2022-08-27T10:58:31.473Z,10.87
2022-08-27T11:01:08.664Z,10.75
2022-08-27T11:03:44.851Z,11.30
2022-08-27T11:06:18.629Z,11.73
2022-08-27T11:08:55.911Z,13.39
2022-08-27T11:14:13.868Z,12.28
2022-08-27T11:16:51.784Z,12.42
2022-08-27T11:19:29.220Z,12.56
2022-08-27T11:22:08.083Z,12.25
2022-08-27T11:24:46.085Z,11.80
2022-08-27T11:27:19.701Z,11.84
2022-08-27T11:30:00.252Z,12.61
2022-08-27T11:32:34.091Z,12.00
2022-08-27T11:35:10.652Z,11.83
2022-08-27T11:37:52.324Z,11.38
2022-08-27T11:40:38.463Z,10.98
2022-08-27T11:43:16.271Z,11.15
2022-08-27T11:45:59.401Z,11.47
2022-08-27T11:48:37.803Z,11.68
2022-08-27T11:51:18.903Z,11.66
2022-08-27T11:54:01.954Z,12.22
2022-08-27T11:56:42.579Z,12.40
2022-08-27T11:59:24.955Z,12.04
2022-08-27T12:02:01.135Z,12.27
2022-08-27T12:04:40.040Z,12.30
2022-08-27T12:07:31.942Z,12.25
2022-08-27T12:13:21.731Z,12.75
2022-08-27T12:16:01.817Z,12.25
2022-08-27T12:19:01.347Z,12.13
2022-08-27T12:21:44.690Z,12.48
2022-08-27T12:24:25.701Z,12.73
2022-08-27T12:27:01.089Z,12.53
2022-08-27T12:29:44.155Z,12.54
2022-08-27T12:32:25.099Z,12.58
2022-08-27T12:35:03.516Z,13.34
2022-08-27T12:37:40.603Z,13.84
2022-08-27T12:40:22.987Z,13.82
2022-08-27T12:43:07.328Z,14.24
2022-08-27T12:45:48.876Z,14.49
2022-08-27T12:48:25.416Z,14.66
2022-08-27T12:51:02.282Z,15.09
2022-08-27T12:53:38.603Z,15.35
2022-08-27T12:56:29.882Z,15.31
2022-08-27T12:59:10.964Z,15.60
2022-08-27T13:01:52.203Z,15.26
2022-08-27T13:04:28.958Z,15.10
2022-08-27T13:07:03.127Z,15.44
2022-08-27T13:09:38.996Z,16.01
2022-08-27T13:12:20.053Z,16.11
2022-08-27T13:14:54.224Z,16.28
2022-08-27T13:17:29.694Z,16.49
2022-08-27T13:20:03.615Z,16.54
2022-08-27T13:22:40.333Z,16.68
2022-08-27T13:25:25.240Z,17.04
2022-08-27T13:28:03.608Z,17.17
2022-08-27T13:30:39.390Z,17.21
2022-08-27T13:33:16.420Z,17.62
2022-08-27T13:35:51.068Z,17.68
2022-08-27T13:38:25.949Z,17.70
2022-08-27T13:41:02.656Z,17.93
2022-08-27T13:43:39.430Z,18.07
2022-08-27T13:46:15.789Z,17.90
2022-08-27T13:48:52.302Z,17.63
2022-08-27T13:51:30.435Z,17.60
2022-08-27T13:54:16.166Z,17.51
2022-08-27T13:57:07.928Z,17.36
2022-08-27T13:59:43.299Z,17.34
2022-08-27T14:02:28.404Z,17.48
2022-08-27T14:05:13.128Z,17.46
2022-08-27T14:07:48.785Z,17.47
2022-08-27T14:13:25.654Z,17.26
2022-08-27T14:16:00.831Z,17.77
2022-08-27T14:21:13.423Z,18.18
2022-08-27T14:23:47.281Z,18.34
2022-08-27T14:26:21.141Z,18.56
2022-08-27T14:28:55.617Z,18.67
2022-08-27T14:31:29.688Z,18.98
2022-08-27T14:34:03.321Z,19.25
2022-08-27T14:36:39.441Z,19.45
2022-08-27T14:39:14.417Z,19.59
2022-08-27T14:41:48.467Z,19.64
2022-08-27T14:44:23.602Z,19.83
2022-08-27T14:46:58.825Z,19.98
2022-08-27T14:49:35.810Z,20.11
2022-08-27T14:52:10.820Z,20.42
2022-08-27T14:54:45.135Z,20.66
2022-08-27T14:57:19.530Z,20.79
2022-08-27T14:59:53.240Z,20.94
2022-08-27T15:02:26.802Z,21.11
2022-08-27T15:05:00.480Z,21.33
2022-08-27T15:07:35.516Z,21.35
2022-08-27T15:10:12.135Z,21.43
2022-08-27T15:12:46.410Z,21.62
2022-08-27T15:15:19.945Z,21.71
2022-08-27T15:17:53.713Z,21.93
2022-08-27T15:20:27.414Z,22.11
2022-08-27T15:23:01.215Z,22.09
2022-08-27T15:25:35.440Z,22.14
2022-08-27T15:28:09.063Z,22.30
2022-08-27T15:30:42.588Z,22.68
2022-08-27T15:33:17.551Z,22.90
2022-08-27T15:35:51.474Z,23.06
2022-08-27T15:38:28.674Z,22.99
2022-08-27T15:41:04.877Z,23.23
2022-08-27T15:43:38.557Z,23.51
2022-08-27T15:46:12.246Z,23.36
2022-08-27T15:48:46.206Z,23.45
2022-08-27T15:51:22.224Z,23.63
2022-08-27T15:53:56.381Z,24.19
2022-08-27T15:56:34.474Z,24.10
2022-08-27T15:59:05.917Z,24.29
2022-08-27T16:01:40.707Z,24.43
2022-08-27T16:04:16.812Z,24.40
2022-08-27T16:06:50.517Z,24.58
2022-08-27T16:09:24.338Z,24.78
2022-08-27T16:11:58.563Z,25.07
2022-08-27T16:14:32.442Z,25.02
2022-08-27T16:17:06.033Z,24.99
2022-08-27T16:19:41.633Z,25.30
2022-08-27T16:22:16.327Z,25.46
2022-08-27T16:24:50.233Z,25.37
2022-08-27T16:27:23.813Z,25.87
2022-08-27T16:29:57.470Z,26.06
2022-08-27T16:32:32.938Z,26.29
2022-08-27T16:35:08.888Z,26.51
2022-08-27T16:37:42.153Z,26.52
2022-08-27T16:40:16.391Z,26.87
2022-08-27T16:42:51.470Z,26.83
2022-08-27T16:45:26.314Z,26.81
2022-08-27T16:48:16.998Z,26.91
2022-08-27T16:50:50.533Z,27.32
2022-08-27T16:53:24.591Z,27.54
2022-08-27T16:55:58.286Z,27.72
2022-08-27T16:58:32.489Z,28.15
2022-08-27T17:01:09.141Z,27.91
2022-08-27T17:04:07.352Z,28.03
2022-08-27T17:06:23.770Z,27.98
2022-08-27T17:08:59.905Z,28.53
2022-08-27T17:11:34.677Z,28.15
2022-08-27T17:14:08.736Z,28.24
2022-08-27T17:16:43.484Z,28.51
2022-08-27T17:19:18.928Z,28.68
2022-08-27T17:21:53.956Z,28.78
2022-08-27T17:24:27.842Z,29.03
2022-08-27T17:27:04.432Z,28.97
2022-08-27T17:29:38.048Z,29.20
2022-08-27T17:32:11.999Z,29.20
2022-08-27T17:34:45.644Z,28.81
2022-08-27T17:37:19.234Z,28.74
2022-08-27T17:39:53.403Z,28.02
2022-08-27T17:42:27.028Z,28.08
2022-08-27T17:45:01.160Z,28.53
2022-08-27T17:47:35.203Z,28.76
2022-08-27T17:50:11.270Z,29.11
2022-08-27T17:52:45.000Z,29.41
2022-08-27T17:55:18.909Z,29.56
2022-08-27T17:57:52.098Z,29.65
2022-08-27T18:00:26.173Z,29.18
2022-08-27T18:02:59.872Z,28.79
2022-08-27T18:05:33.102Z,28.92
2022-08-27T18:08:07.267Z,28.56
2022-08-27T18:10:41.421Z,28.42
2022-08-27T18:13:15.719Z,28.42
2022-08-27T18:15:50.385Z,28.70
2022-08-27T18:18:23.984Z,28.69
2022-08-27T18:20:59.426Z,29.02
2022-08-27T18:23:33.240Z,28.95
2022-08-27T18:26:08.164Z,29.06
2022-08-27T18:28:42.079Z,28.66
2022-08-27T18:31:17.884Z,28.62
2022-08-27T18:33:51.396Z,28.53
2022-08-27T18:36:25.518Z,28.31
2022-08-27T18:38:59.570Z,28.43
2022-08-27T18:41:34.050Z,28.78
2022-08-27T18:44:17.213Z,28.83
2022-08-27T18:46:44.195Z,28.78
2022-08-27T18:49:17.704Z,28.77
2022-08-27T18:51:52.797Z,28.64
2022-08-27T18:54:28.708Z,28.54
2022-08-27T18:57:05.424Z,28.85
2022-08-27T18:59:38.880Z,28.73
2022-08-27T19:04:44.903Z,28.64
2022-08-27T19:07:18.593Z,29.19
2022-08-27T19:09:52.187Z,28.99
2022-08-27T19:12:26.036Z,28.67
2022-08-27T19:14:59.644Z,28.86
2022-08-27T19:17:36.564Z,28.91
2022-08-27T19:20:11.737Z,28.83
2022-08-27T19:22:45.353Z,28.92
2022-08-27T19:25:20.038Z,28.70
2022-08-27T19:27:55.523Z,28.64
2022-08-27T19:30:29.208Z,28.85
2022-08-27T19:33:04.294Z,28.91
2022-08-27T19:35:39.622Z,28.73
2022-08-27T19:38:15.032Z,29.06
2022-08-27T19:40:48.629Z,29.06
2022-08-27T19:43:22.249Z,29.28
2022-08-27T19:45:56.874Z,28.99
2022-08-27T19:48:30.458Z,28.80
2022-08-27T19:51:04.159Z,28.94
2022-08-27T19:53:38.429Z,29.14
2022-08-27T19:56:13.871Z,28.79
2022-08-27T19:58:47.935Z,28.85
2022-08-27T20:01:25.896Z,28.73
2022-08-27T20:03:59.527Z,28.85
2022-08-27T20:06:34.785Z,28.96
2022-08-27T20:09:10.406Z,29.13
2022-08-27T20:11:46.016Z,29.11
2022-08-27T20:14:20.509Z,29.27
2022-08-27T20:16:54.027Z,29.72
2022-08-27T20:19:28.938Z,29.95
2022-08-27T20:22:02.853Z,30.02
2022-08-27T20:24:37.941Z,29.72
2022-08-27T20:27:11.588Z,29.70
2022-08-27T20:29:45.097Z,29.76
2022-08-27T20:32:20.644Z,29.70
2022-08-27T20:34:54.560Z,30.03
2022-08-27T20:37:28.162Z,30.45
2022-08-27T20:40:01.752Z,30.80
2022-08-27T20:42:36.009Z,30.79
2022-08-27T20:45:12.516Z,30.53
2022-08-27T20:47:48.817Z,30.97
2022-08-27T20:50:23.431Z,30.81
2022-08-27T20:52:57.116Z,30.94
2022-08-27T20:55:31.063Z,31.21
2022-08-27T20:58:22.066Z,31.21
2022-08-27T21:00:56.750Z,31.41
2022-08-27T21:03:31.924Z,31.28
2022-08-27T21:06:08.048Z,31.16
2022-08-27T21:08:46.761Z,31.25
2022-08-27T21:11:21.353Z,31.20
2022-08-27T21:13:56.703Z,31.32
2022-08-27T21:16:30.983Z,31.34
2022-08-27T21:19:04.499Z,31.57
2022-08-27T21:21:37.909Z,31.96
2022-08-27T21:24:11.650Z,31.89
2022-08-27T21:26:46.227Z,31.46
2022-08-27T21:29:21.741Z,31.70
2022-08-27T21:31:55.506Z,32.04
2022-08-27T21:34:30.666Z,32.32
2022-08-27T21:37:05.046Z,32.50
2022-08-27T21:39:39.117Z,32.47
2022-08-27T21:42:13.458Z,32.35
2022-08-27T21:44:47.948Z,32.45
2022-08-27T21:47:21.911Z,32.63
2022-08-27T21:49:56.811Z,32.85
2022-08-27T21:52:30.898Z,32.82
2022-08-27T21:55:05.112Z,32.73
2022-08-27T21:57:38.757Z,32.79
2022-08-27T22:00:19.308Z,33.35
2022-08-27T22:02:53.784Z,33.13
2022-08-27T22:05:28.937Z,33.48
2022-08-27T22:08:06.349Z,33.51
2022-08-27T22:10:40.850Z,33.49
2022-08-27T22:13:14.677Z,33.53
2022-08-27T22:15:50.933Z,33.69
2022-08-27T22:18:27.085Z,33.79
2022-08-27T22:21:06.325Z,33.88
2022-08-27T22:23:42.238Z,34.16
2022-08-27T22:26:15.495Z,34.21
2022-08-27T22:28:49.016Z,34.10
2022-08-27T22:31:23.184Z,34.37
2022-08-27T22:33:56.834Z,34.34
2022-08-27T22:36:30.727Z,34.39
2022-08-27T22:39:04.193Z,34.72
2022-08-27T22:41:37.658Z,34.30
2022-08-27T22:44:12.958Z,34.81
2022-08-27T22:46:46.659Z,34.64
2022-08-27T22:49:20.352Z,34.95
2022-08-27T22:51:56.383Z,34.95
2022-08-27T22:54:30.391Z,35.42
2022-08-27T22:57:03.850Z,35.03
2022-08-27T22:59:37.342Z,35.03
2022-08-27T23:02:13.262Z,35.32
2022-08-27T23:04:55.587Z,34.99
2022-08-27T23:07:22.126Z,35.16
2022-08-27T23:09:55.705Z,35.11
2022-08-27T23:12:29.926Z,35.42
2022-08-27T23:15:06.463Z,35.37
2022-08-27T23:17:40.464Z,35.91
2022-08-27T23:20:15.371Z,35.58
2022-08-27T23:22:49.057Z,35.84
2022-08-27T23:25:43.316Z,35.95
2022-08-27T23:28:17.800Z,36.40
2022-08-27T23:30:51.963Z,36.49
2022-08-27T23:33:25.535Z,36.20
2022-08-27T23:35:58.910Z,36.27
2022-08-27T23:38:32.823Z,36.29
2022-08-27T23:41:08.117Z,36.53
2022-08-27T23:43:41.818Z,36.39
2022-08-27T23:46:16.129Z,36.76
2022-08-27T23:48:49.616Z,36.56
2022-08-27T23:51:23.683Z,36.76
2022-08-27T23:53:57.513Z,36.74
2022-08-27T23:56:31.227Z,36.78
2022-08-27T23:59:05.327Z,37.01
